createdAt,value
2022-11-16T00:01:40.399Z,25.60
2022-11-16T00:04:10.030Z,25.70
2022-11-16T00:06:37.632Z,25.70
2022-11-16T00:09:23.040Z,25.70
2022-11-16T00:11:54.958Z,25.70
2022-11-16T00:14:23.356Z,25.70
2022-11-16T00:16:51.328Z,25.80
2022-11-16T00:19:19.365Z,25.80
2022-11-16T00:21:47.078Z,25.80
2022-11-16T00:24:15.673Z,25.80
2022-11-16T00:26:43.359Z,25.90
2022-11-16T00:29:19.851Z,25.90
2022-11-16T00:34:55.633Z,26.00
2022-11-16T00:37:23.136Z,26.00
2022-11-16T00:42:28.316Z,26.10
2022-11-16T00:44:55.947Z,26.10
2022-11-16T00:47:33.664Z,26.20
2022-11-16T00:50:01.343Z,26.20
2022-11-16T00:52:28.935Z,26.30
2022-11-16T00:54:57.127Z,26.40
2022-11-16T00:57:24.939Z,26.50
2022-11-16T00:59:52.526Z,26.50
2022-11-16T01:02:20.299Z,26.60
2022-11-16T01:04:49.064Z,26.60
2022-11-16T01:07:16.978Z,26.70
2022-11-16T01:09:44.843Z,26.70
2022-11-16T01:12:16.471Z,26.80
2022-11-16T01:14:45.806Z,26.80
2022-11-16T01:17:14.689Z,26.80
2022-11-16T01:19:42.439Z,26.80
2022-11-16T01:22:10.328Z,26.90
2022-11-16T01:24:38.686Z,26.90
2022-11-16T01:27:06.591Z,27.00
2022-11-16T01:29:34.120Z,27.10
2022-11-16T01:32:01.671Z,27.10
2022-11-16T01:34:29.243Z,27.20
2022-11-16T01:36:57.242Z,27.20
2022-11-16T01:39:24.823Z,27.20
2022-11-16T01:41:52.406Z,27.30
2022-11-16T01:44:31.975Z,27.30
2022-11-16T01:47:06.585Z,27.40
2022-11-16T01:49:37.073Z,27.40
2022-11-16T01:52:13.766Z,27.50
2022-11-16T01:54:43.303Z,27.50
2022-11-16T01:57:14.335Z,27.50
2022-11-16T01:59:42.946Z,27.50
2022-11-16T02:02:10.502Z,27.60
2022-11-16T02:04:38.090Z,27.60
2022-11-16T02:07:05.958Z,27.70
2022-11-16T02:09:51.883Z,27.70
2022-11-16T02:12:36.916Z,27.80
2022-11-16T02:15:07.551Z,27.80
2022-11-16T02:17:38.354Z,27.90
2022-11-16T02:20:21.258Z,27.90
2022-11-16T02:22:58.005Z,28.00
2022-11-16T02:25:31.501Z,28.00
2022-11-16T02:28:18.053Z,28.10
2022-11-16T02:30:48.287Z,28.10
2022-11-16T02:33:19.225Z,28.20
2022-11-16T02:35:48.789Z,28.20
2022-11-16T02:38:24.567Z,28.20
2022-11-16T02:43:41.943Z,28.30
2022-11-16T02:46:29.593Z,28.40
2022-11-16T02:48:59.182Z,28.40
2022-11-16T02:51:28.914Z,28.40
2022-11-16T02:54:09.355Z,28.40
2022-11-16T02:56:57.283Z,28.40
2022-11-16T02:59:27.793Z,28.50
2022-11-16T03:02:25.274Z,28.60
2022-11-16T03:05:11.162Z,28.60
2022-11-16T03:07:43.128Z,28.60
2022-11-16T03:10:33.193Z,28.60
2022-11-16T03:13:02.051Z,28.70
2022-11-16T03:15:31.071Z,28.70
2022-11-16T03:17:59.794Z,28.70
2022-11-16T03:20:29.371Z,28.80
2022-11-16T03:23:08.103Z,28.80
2022-11-16T03:25:55.740Z,28.90
2022-11-16T03:28:25.799Z,28.90
2022-11-16T03:30:56.022Z,28.90
2022-11-16T03:33:29.061Z,28.90
2022-11-16T03:36:15.118Z,28.90
2022-11-16T03:38:45.777Z,28.90
2022-11-16T03:41:15.748Z,29.00
2022-11-16T03:43:45.654Z,29.10
2022-11-16T03:46:14.178Z,29.30
2022-11-16T03:48:42.748Z,29.30
2022-11-16T03:51:11.165Z,29.40
2022-11-16T03:53:41.816Z,29.40
2022-11-16T03:56:09.800Z,29.40
2022-11-16T03:58:37.413Z,29.50
2022-11-16T04:01:05.347Z,29.50
2022-11-16T04:03:38.268Z,29.50
2022-11-16T04:06:24.700Z,29.60
2022-11-16T04:09:13.510Z,29.60
2022-11-16T04:11:59.198Z,29.70
2022-11-16T04:14:46.634Z,29.70
2022-11-16T04:17:33.216Z,29.80
2022-11-16T04:20:19.184Z,29.90
2022-11-16T04:23:16.442Z,30.00
2022-11-16T04:25:58.442Z,30.00
2022-11-16T04:28:28.089Z,30.10
2022-11-16T04:31:18.033Z,30.10
2022-11-16T04:34:04.511Z,30.10
2022-11-16T04:36:53.386Z,30.10
2022-11-16T04:39:21.768Z,30.10
2022-11-16T04:42:09.062Z,30.00
2022-11-16T04:44:55.343Z,29.90
2022-11-16T04:47:26.038Z,29.90
2022-11-16T04:50:00.086Z,29.90
2022-11-16T04:52:27.780Z,29.90
2022-11-16T04:55:09.374Z,29.90
2022-11-16T04:57:36.956Z,30.00
2022-11-16T05:00:05.611Z,30.10
2022-11-16T05:02:36.440Z,30.10
2022-11-16T05:05:07.173Z,30.20
2022-11-16T05:07:37.881Z,30.20
2022-11-16T05:10:07.842Z,30.20
2022-11-16T05:12:50.135Z,30.30
2022-11-16T05:15:37.906Z,30.40
2022-11-16T05:18:11.597Z,30.50
2022-11-16T05:20:57.994Z,30.50
2022-11-16T05:23:43.787Z,30.50
2022-11-16T05:26:12.898Z,30.60
2022-11-16T05:28:40.551Z,30.70
2022-11-16T05:31:08.950Z,30.70
2022-11-16T05:33:36.530Z,30.70
2022-11-16T05:36:04.693Z,30.70
2022-11-16T05:38:33.493Z,30.60
2022-11-16T05:41:01.321Z,30.60
2022-11-16T05:43:29.822Z,30.70
2022-11-16T05:45:58.293Z,30.80
2022-11-16T05:48:26.502Z,30.80
2022-11-16T05:50:58.329Z,30.80
2022-11-16T05:53:26.682Z,30.80
2022-11-16T05:55:54.288Z,30.90
2022-11-16T05:58:22.619Z,30.90
2022-11-16T06:00:51.286Z,31.00
2022-11-16T06:03:19.142Z,31.00
2022-11-16T06:05:46.978Z,31.00
2022-11-16T06:08:15.233Z,31.00
2022-11-16T06:10:42.733Z,31.10
2022-11-16T06:13:10.332Z,31.10
2022-11-16T06:15:38.703Z,31.20
2022-11-16T06:18:06.301Z,31.20
2022-11-16T06:20:34.126Z,31.20
2022-11-16T06:23:01.710Z,31.30
2022-11-16T06:25:31.864Z,31.30
2022-11-16T06:28:01.991Z,31.40
2022-11-16T06:30:32.894Z,31.40
2022-11-16T06:33:00.433Z,31.40
2022-11-16T06:35:27.934Z,31.40
2022-11-16T06:37:56.544Z,31.40
2022-11-16T06:40:24.196Z,31.40
2022-11-16T06:42:51.724Z,31.40
2022-11-16T06:45:19.268Z,31.40
2022-11-16T06:47:47.331Z,31.40
2022-11-16T06:50:14.855Z,31.40
2022-11-16T06:52:42.381Z,31.50
2022-11-16T06:55:10.103Z,31.40
2022-11-16T06:57:37.618Z,31.40
2022-11-16T07:00:05.362Z,31.40
2022-11-16T07:02:32.862Z,31.40
2022-11-16T07:05:03.504Z,31.40
2022-11-16T07:07:32.215Z,31.50
2022-11-16T07:10:00.838Z,31.50
2022-11-16T07:12:28.286Z,31.50
2022-11-16T07:14:55.852Z,31.50
2022-11-16T07:17:23.391Z,31.50
2022-11-16T07:19:51.647Z,31.50
2022-11-16T07:22:19.243Z,31.50
2022-11-16T07:24:47.025Z,31.50
2022-11-16T07:27:17.082Z,31.50
2022-11-16T07:29:44.573Z,31.60
2022-11-16T07:32:12.087Z,31.60
2022-11-16T07:34:42.837Z,31.60
2022-11-16T07:37:10.536Z,31.60
2022-11-16T07:39:38.313Z,31.60
2022-11-16T07:42:11.829Z,31.60
2022-11-16T07:44:39.769Z,31.60
2022-11-16T07:47:07.387Z,31.60
2022-11-16T07:49:36.304Z,31.50
2022-11-16T07:52:04.122Z,31.50
2022-11-16T07:54:31.698Z,31.50
2022-11-16T07:56:59.311Z,31.50
2022-11-16T07:59:28.573Z,31.50
2022-11-16T08:01:59.496Z,31.50
2022-11-16T08:04:27.612Z,31.60
2022-11-16T08:06:55.978Z,31.60
2022-11-16T08:09:23.667Z,31.50
2022-11-16T08:11:52.011Z,31.50
2022-11-16T08:14:19.757Z,31.60
2022-11-16T08:16:47.255Z,31.70
2022-11-16T08:19:14.896Z,31.70
2022-11-16T08:21:45.535Z,31.70
2022-11-16T08:24:16.961Z,31.80
2022-11-16T08:26:44.641Z,31.70
2022-11-16T08:29:12.178Z,31.70
2022-11-16T08:31:42.349Z,31.70
2022-11-16T08:34:09.872Z,31.60
2022-11-16T08:36:38.269Z,31.60
2022-11-16T08:39:05.914Z,31.60
2022-11-16T08:41:38.994Z,31.60
2022-11-16T08:44:06.660Z,31.50
2022-11-16T08:46:43.574Z,31.60
2022-11-16T08:49:11.179Z,31.60
2022-11-16T08:51:39.034Z,31.60
2022-11-16T08:54:06.595Z,31.60
2022-11-16T08:56:34.254Z,31.70
2022-11-16T08:59:01.762Z,31.70
2022-11-16T09:01:30.441Z,31.70
2022-11-16T09:03:58.068Z,31.70
2022-11-16T09:06:27.138Z,31.80
2022-11-16T09:08:54.995Z,31.80
2022-11-16T09:11:23.960Z,31.80
2022-11-16T09:13:52.918Z,31.80
2022-11-16T09:16:21.237Z,31.70
2022-11-16T09:18:50.214Z,31.70
2022-11-16T09:21:19.213Z,31.60
2022-11-16T09:23:47.176Z,31.60
2022-11-16T09:26:16.814Z,31.60
2022-11-16T09:28:47.429Z,31.50
2022-11-16T09:31:21.885Z,31.50
2022-11-16T09:33:56.597Z,31.50
2022-11-16T09:36:24.324Z,31.50
2022-11-16T09:39:25.861Z,31.50
2022-11-16T09:41:54.370Z,31.40
2022-11-16T09:44:41.321Z,31.40
2022-11-16T09:47:16.718Z,31.30
2022-11-16T09:49:46.629Z,31.30
2022-11-16T09:52:36.699Z,31.30
2022-11-16T09:55:20.928Z,31.20
2022-11-16T09:57:49.122Z,31.20
2022-11-16T10:00:19.859Z,31.20
2022-11-16T10:02:57.560Z,31.20
2022-11-16T10:05:28.218Z,31.20
2022-11-16T10:08:00.655Z,31.10
2022-11-16T10:10:28.240Z,31.00
2022-11-16T10:13:01.101Z,31.00
2022-11-16T10:15:31.804Z,31.00
2022-11-16T10:17:59.290Z,31.00
2022-11-16T10:20:30.722Z,30.90
2022-11-16T10:23:17.884Z,30.90
2022-11-16T10:25:46.610Z,30.90
2022-11-16T10:28:22.329Z,30.90
2022-11-16T10:31:15.537Z,30.80
2022-11-16T10:33:44.742Z,30.80
2022-11-16T10:36:14.688Z,30.70
2022-11-16T10:38:43.575Z,30.70
2022-11-16T10:41:19.502Z,30.60
2022-11-16T10:43:47.820Z,30.60
2022-11-16T10:46:21.159Z,30.50
2022-11-16T10:48:48.666Z,30.50
2022-11-16T10:51:16.195Z,30.40
2022-11-16T10:53:44.564Z,30.40
2022-11-16T10:56:18.931Z,30.40
2022-11-16T10:58:49.818Z,30.30
2022-11-16T11:01:37.475Z,30.30
2022-11-16T11:04:17.407Z,30.20
2022-11-16T11:06:45.707Z,30.20
2022-11-16T11:09:24.219Z,30.20
2022-11-16T11:12:28.749Z,30.10
2022-11-16T11:15:00.679Z,30.10
2022-11-16T11:17:28.857Z,30.00
2022-11-16T11:20:00.902Z,30.00
2022-11-16T11:22:29.904Z,29.90
2022-11-16T11:24:57.721Z,29.90
2022-11-16T11:27:27.335Z,29.90
2022-11-16T11:29:56.136Z,29.80
2022-11-16T11:32:32.467Z,29.80
2022-11-16T11:35:01.279Z,29.70
2022-11-16T11:37:34.327Z,29.60
2022-11-16T11:40:05.677Z,29.60
2022-11-16T11:42:33.254Z,29.60
2022-11-16T11:45:03.982Z,29.60
2022-11-16T11:50:37.457Z,29.50
2022-11-16T11:53:11.948Z,29.40
2022-11-16T11:55:39.535Z,29.40
2022-11-16T11:58:11.817Z,29.40
2022-11-16T12:00:54.633Z,29.40
2022-11-16T12:03:33.860Z,29.40
2022-11-16T12:06:14.656Z,29.40
2022-11-16T12:08:48.342Z,29.40
2022-11-16T12:11:25.611Z,29.30
2022-11-16T12:13:55.969Z,29.30
2022-11-16T12:16:52.749Z,29.30
2022-11-16T12:19:29.630Z,29.30
2022-11-16T12:21:57.234Z,29.20
2022-11-16T12:24:50.614Z,29.20
2022-11-16T12:27:30.116Z,29.20
2022-11-16T12:30:16.043Z,29.20
2022-11-16T12:33:02.054Z,29.10
2022-11-16T12:35:42.840Z,29.10
2022-11-16T12:38:26.556Z,29.00
2022-11-16T12:41:00.287Z,29.00
2022-11-16T12:43:46.424Z,28.90
2022-11-16T12:46:23.076Z,28.90
2022-11-16T12:48:50.527Z,28.90
2022-11-16T12:51:28.789Z,28.80
2022-11-16T12:54:17.363Z,28.80
2022-11-16T12:56:49.257Z,28.80
2022-11-16T12:59:29.198Z,28.80
2022-11-16T13:02:00.751Z,28.70
2022-11-16T13:04:34.155Z,28.70
2022-11-16T13:07:12.744Z,28.60
2022-11-16T13:09:46.783Z,28.60
2022-11-16T13:12:17.366Z,28.60
2022-11-16T13:14:46.316Z,28.60
2022-11-16T13:17:24.663Z,28.50
2022-11-16T13:20:10.221Z,28.50
2022-11-16T13:22:45.162Z,28.50
2022-11-16T13:25:19.393Z,28.50
2022-11-16T13:27:55.837Z,28.50
2022-11-16T13:30:25.158Z,28.50
2022-11-16T13:33:10.943Z,28.50
2022-11-16T13:35:38.765Z,28.40
2022-11-16T13:38:12.539Z,28.40
2022-11-16T13:40:40.819Z,28.30
2022-11-16T13:43:11.057Z,28.30
2022-11-16T13:45:51.433Z,28.30
2022-11-16T13:48:24.130Z,28.30
2022-11-16T13:50:53.945Z,28.30
2022-11-16T13:54:25.140Z,28.30
2022-11-16T13:56:17.608Z,28.30
2022-11-16T13:58:49.742Z,28.30
2022-11-16T14:01:18.151Z,28.20
2022-11-16T14:03:45.693Z,28.20
2022-11-16T14:06:25.299Z,28.10
2022-11-16T14:08:54.076Z,28.20
2022-11-16T14:11:27.538Z,28.20
2022-11-16T14:13:55.013Z,28.10
2022-11-16T14:16:22.948Z,28.10
2022-11-16T14:18:50.472Z,28.20
2022-11-16T14:21:22.076Z,28.20
2022-11-16T14:23:52.712Z,28.20
2022-11-16T14:26:26.259Z,28.20
2022-11-16T14:29:03.929Z,28.20
2022-11-16T14:31:52.576Z,28.20
2022-11-16T14:34:32.441Z,28.10
2022-11-16T14:37:00.893Z,28.20
2022-11-16T14:39:31.423Z,28.10
2022-11-16T14:42:15.788Z,28.10
2022-11-16T14:44:43.982Z,28.20
2022-11-16T14:47:23.504Z,28.10
2022-11-16T14:49:51.295Z,28.10
2022-11-16T14:52:21.339Z,28.10
2022-11-16T14:54:51.742Z,28.10
2022-11-16T14:57:23.477Z,28.10
2022-11-16T15:00:08.582Z,28.10
2022-11-16T15:02:37.460Z,28.10
2022-11-16T15:05:05.181Z,28.00
2022-11-16T15:07:33.066Z,28.00
2022-11-16T15:10:00.940Z,28.00
2022-11-16T15:12:42.736Z,28.00
2022-11-16T15:15:13.061Z,28.00
2022-11-16T15:17:41.756Z,28.00
2022-11-16T15:20:22.616Z,28.00
2022-11-16T15:22:55.479Z,28.10
2022-11-16T15:25:25.813Z,28.10
2022-11-16T15:27:53.791Z,28.10
2022-11-16T15:30:21.296Z,28.00
2022-11-16T15:32:50.626Z,28.00
2022-11-16T15:35:20.652Z,27.90
2022-11-16T15:37:48.193Z,27.90
2022-11-16T15:40:16.158Z,27.90
2022-11-16T15:42:44.190Z,27.80
2022-11-16T15:45:21.163Z,27.80
2022-11-16T15:47:49.709Z,27.80
2022-11-16T15:50:19.523Z,27.80
2022-11-16T15:52:50.429Z,27.70
2022-11-16T15:55:31.945Z,27.70
2022-11-16T15:58:01.079Z,27.70
2022-11-16T16:00:29.665Z,27.60
2022-11-16T16:03:01.484Z,27.60
2022-11-16T16:05:39.225Z,27.60
2022-11-16T16:08:23.045Z,27.60
2022-11-16T16:11:00.603Z,27.60
2022-11-16T16:13:33.335Z,27.50
2022-11-16T16:16:19.693Z,27.50
2022-11-16T16:18:47.422Z,27.50
2022-11-16T16:21:14.887Z,27.40
2022-11-16T16:23:49.801Z,27.40
2022-11-16T16:26:17.708Z,27.40
2022-11-16T16:28:45.389Z,27.30
2022-11-16T16:31:13.264Z,27.30
2022-11-16T16:33:41.128Z,27.30
2022-11-16T16:36:11.711Z,27.30
2022-11-16T16:38:39.161Z,27.30
2022-11-16T16:41:07.193Z,27.30
2022-11-16T16:43:35.498Z,27.20
2022-11-16T16:46:04.148Z,27.20
2022-11-16T16:48:31.713Z,27.20
2022-11-16T16:50:59.300Z,27.20
2022-11-16T16:53:26.850Z,27.20
2022-11-16T16:55:54.306Z,27.20
2022-11-16T16:58:21.777Z,27.10
2022-11-16T17:00:49.535Z,27.10
2022-11-16T17:03:17.097Z,27.10
2022-11-16T17:05:44.810Z,27.10
2022-11-16T17:08:12.370Z,27.10
2022-11-16T17:10:39.864Z,27.10
2022-11-16T17:13:07.375Z,27.00
2022-11-16T17:15:34.854Z,27.00
2022-11-16T17:18:03.073Z,27.00
2022-11-16T17:20:30.575Z,27.00
2022-11-16T17:22:58.359Z,27.00
2022-11-16T17:25:25.884Z,27.00
2022-11-16T17:27:53.360Z,27.00
2022-11-16T17:30:20.890Z,27.00
2022-11-16T17:32:48.384Z,27.00
2022-11-16T17:35:15.900Z,27.00
2022-11-16T17:37:43.629Z,27.00
2022-11-16T17:40:11.704Z,27.00
2022-11-16T17:42:39.338Z,27.00
2022-11-16T17:45:07.090Z,27.00
2022-11-16T17:47:34.540Z,27.00
2022-11-16T17:50:02.207Z,27.00
2022-11-16T17:52:29.751Z,27.00
2022-11-16T17:54:57.175Z,27.00
2022-11-16T17:57:25.655Z,27.00
2022-11-16T17:59:53.198Z,26.90
2022-11-16T18:02:20.656Z,26.90
2022-11-16T18:04:51.024Z,26.90
2022-11-16T18:07:19.229Z,26.90
2022-11-16T18:09:46.731Z,26.90
2022-11-16T18:12:14.171Z,26.80
2022-11-16T18:14:42.479Z,26.80
2022-11-16T18:17:10.065Z,26.80
2022-11-16T18:19:37.566Z,26.80
2022-11-16T18:22:05.114Z,26.80
2022-11-16T18:24:32.616Z,26.80
2022-11-16T18:27:00.082Z,26.80
2022-11-16T18:29:27.614Z,26.80
2022-11-16T18:31:55.140Z,26.80
2022-11-16T18:34:22.649Z,26.80
2022-11-16T18:36:51.081Z,26.80
2022-11-16T18:39:18.574Z,26.70
2022-11-16T18:41:50.192Z,26.80
2022-11-16T18:44:21.968Z,26.80
2022-11-16T18:46:49.400Z,26.80
2022-11-16T18:49:17.138Z,26.80
2022-11-16T18:51:44.698Z,26.90
2022-11-16T18:54:12.279Z,27.00
2022-11-16T18:56:39.767Z,27.00
2022-11-16T18:59:07.267Z,27.00
2022-11-16T19:01:34.940Z,27.00
2022-11-16T19:04:03.364Z,27.00
2022-11-16T19:06:32.587Z,27.00
2022-11-16T19:09:00.220Z,27.00
2022-11-16T19:11:29.534Z,27.00
2022-11-16T19:13:58.168Z,27.10
2022-11-16T19:16:25.679Z,27.10
2022-11-16T19:18:53.419Z,27.10
2022-11-16T19:21:22.168Z,27.10
2022-11-16T19:23:51.194Z,27.10
2022-11-16T19:26:19.734Z,27.00
2022-11-16T19:28:48.209Z,27.00
2022-11-16T19:31:16.960Z,27.00
2022-11-16T19:33:45.038Z,27.00
2022-11-16T19:36:13.571Z,27.00
2022-11-16T19:38:41.285Z,27.00
2022-11-16T19:41:09.982Z,27.00
2022-11-16T19:43:37.700Z,27.00
2022-11-16T19:46:07.075Z,27.00
2022-11-16T19:48:34.599Z,27.00
2022-11-16T19:51:16.123Z,27.00
2022-11-16T19:53:43.623Z,27.00
2022-11-16T19:56:12.441Z,26.90
2022-11-16T19:58:39.974Z,26.90
2022-11-16T20:01:08.845Z,26.90
2022-11-16T20:03:38.591Z,26.90
2022-11-16T20:06:09.159Z,26.90
2022-11-16T20:08:37.739Z,26.80
2022-11-16T20:11:12.327Z,26.80
2022-11-16T20:13:40.007Z,26.80
2022-11-16T20:16:07.925Z,26.80
2022-11-16T20:18:35.527Z,26.80
2022-11-16T20:21:05.402Z,26.80
2022-11-16T20:23:36.338Z,26.80
2022-11-16T20:26:05.038Z,26.70
2022-11-16T20:28:36.301Z,26.70
2022-11-16T20:31:06.729Z,26.70
2022-11-16T20:33:35.038Z,26.70
2022-11-16T20:36:07.232Z,26.70
2022-11-16T20:38:35.354Z,26.60
2022-11-16T20:41:09.729Z,26.60
2022-11-16T20:43:39.522Z,26.60
2022-11-16T20:46:10.374Z,26.60
2022-11-16T20:48:38.458Z,26.60
2022-11-16T20:51:06.209Z,26.60
2022-11-16T20:53:34.283Z,26.50
2022-11-16T20:56:05.055Z,26.60
2022-11-16T20:58:32.602Z,26.50
2022-11-16T21:01:01.224Z,26.50
2022-11-16T21:03:29.217Z,26.50
2022-11-16T21:05:56.746Z,26.50
2022-11-16T21:08:27.097Z,26.50
2022-11-16T21:10:54.636Z,26.50
2022-11-16T21:13:40.704Z,26.50
2022-11-16T21:16:11.518Z,26.50
2022-11-16T21:18:39.633Z,26.40
2022-11-16T21:21:13.894Z,26.40
2022-11-16T21:23:43.354Z,26.40
2022-11-16T21:26:14.752Z,26.40
2022-11-16T21:28:44.935Z,26.40
2022-11-16T21:31:16.860Z,26.40
2022-11-16T21:33:45.158Z,26.40
2022-11-16T21:36:13.660Z,26.40
2022-11-16T21:38:41.325Z,26.30
2022-11-16T21:41:09.344Z,26.30
2022-11-16T21:43:37.253Z,26.30
2022-11-16T21:46:08.319Z,26.30
2022-11-16T21:48:36.007Z,26.30
2022-11-16T21:51:05.030Z,26.30
2022-11-16T21:53:33.384Z,26.30
2022-11-16T21:56:01.353Z,26.30
2022-11-16T21:58:28.921Z,26.30
2022-11-16T22:00:57.434Z,26.20
2022-11-16T22:03:25.615Z,26.20
2022-11-16T22:06:12.300Z,26.20
2022-11-16T22:08:40.147Z,26.20
2022-11-16T22:11:08.384Z,26.20
2022-11-16T22:13:36.536Z,26.20
2022-11-16T22:16:07.943Z,26.10
2022-11-16T22:18:35.574Z,26.20
2022-11-16T22:21:03.625Z,26.10
2022-11-16T22:23:31.652Z,26.10
2022-11-16T22:26:03.280Z,26.10
2022-11-16T22:28:31.489Z,26.20
2022-11-16T22:31:16.927Z,26.20
2022-11-16T22:33:44.406Z,26.10
2022-11-16T22:36:13.460Z,26.10
2022-11-16T22:38:41.717Z,26.10
2022-11-16T22:41:09.729Z,26.10
2022-11-16T22:43:37.790Z,26.10
2022-11-16T22:46:06.114Z,26.10
2022-11-16T22:48:35.351Z,26.00
2022-11-16T22:51:03.671Z,26.00
2022-11-16T22:53:31.218Z,26.00
2022-11-16T22:56:08.315Z,26.00
2022-11-16T22:58:36.169Z,26.00
2022-11-16T23:01:03.973Z,25.90
2022-11-16T23:03:31.648Z,25.90
2022-11-16T23:06:00.035Z,25.90
2022-11-16T23:08:27.854Z,25.90
2022-11-16T23:11:24.221Z,25.90
2022-11-16T23:14:10.764Z,25.90
2022-11-16T23:16:38.632Z,25.90
2022-11-16T23:19:25.264Z,25.90
2022-11-16T23:22:11.032Z,25.90
2022-11-16T23:24:56.937Z,25.90
2022-11-16T23:27:31.050Z,25.90
2022-11-16T23:29:59.469Z,25.90
2022-11-16T23:32:27.939Z,25.90
2022-11-16T23:34:55.393Z,25.80
2022-11-16T23:37:22.934Z,25.90
2022-11-16T23:39:50.404Z,25.90
2022-11-16T23:42:36.162Z,25.90
2022-11-16T23:45:03.982Z,25.90
2022-11-16T23:47:31.483Z,25.90
2022-11-16T23:49:58.938Z,25.80
2022-11-16T23:52:26.411Z,25.80
2022-11-16T23:54:53.889Z,25.80
2022-11-16T23:57:21.388Z,25.90
2022-11-16T23:59:48.879Z,25.90
